Time;durP1;ratioP1;P1;durP2;ratioP2;P2;SDS_P1;SDS_P2;PMS_P1;PMS_P2;Temp;Humidity;BMP_temperature;BMP_pressure;BME280_temperature;BME280_humidity;BME280_pressure;Samples;Min_cycle;Max_cycle;Signal;HPM_P1;HPM_P2
2021/06/05 00:02:18;;;;;;;9.55;8.57;;;;;;;21.48;55.10;101900.03;6131768;28;20239;-56
2021/06/05 00:05:43;;;;;;;8.93;8.05;;;;;;;21.56;54.68;101905.06;6135263;28;20240;-57
2021/06/05 00:09:06;;;;;;;9.18;8.40;;;;;;;21.51;55.07;101907.00;6128550;28;20235;-57
2021/06/05 00:12:29;;;;;;;9.88;8.48;;;;;;;21.59;54.69;101902.28;6140550;28;20613;-56
2021/06/05 00:15:50;;;;;;;9.13;8.30;;;;;;;21.18;55.71;101894.06;6141058;28;20247;-52
2021/06/05 00:19:11;;;;;;;7.85;7.28;;;;;;;21.13;55.76;101888.94;6143451;28;20227;-56
2021/06/05 00:22:33;;;;;;;10.02;8.52;;;;;;;21.38;55.08;101886.25;6147440;28;20622;-56
2021/06/05 00:25:55;;;;;;;10.50;8.85;;;;;;;21.38;55.08;101893.31;6135121;28;20235;-54
2021/06/05 00:29:15;;;;;;;9.95;9.05;;;;;;;21.49;54.54;101883.22;6136280;28;20231;-54
2021/06/05 00:32:36;;;;;;;9.07;8.30;;;;;;;21.35;54.65;101889.00;6142531;28;20246;-56
2021/06/05 00:35:56;;;;;;;8.93;8.13;;;;;;;21.53;54.06;101889.25;6128433;28;20231;-56
2021/06/05 00:39:18;;;;;;;9.80;8.85;;;;;;;21.18;54.82;101894.91;6139471;28;20338;-55
2021/06/05 00:42:39;;;;;;;10.02;8.90;;;;;;;21.16;54.89;101898.53;6138107;28;20236;-56
2021/06/05 00:45:59;;;;;;;8.57;7.88;;;;;;;21.14;55.08;101897.75;6140911;28;20231;-55
2021/06/05 00:49:20;;;;;;;8.13;7.53;;;;;;;21.35;54.37;101896.09;6137517;28;20255;-57
2021/06/05 00:52:44;;;;;;;8.55;7.93;;;;;;;21.14;55.15;101903.03;6141444;28;20322;-55
2021/06/05 00:56:09;;;;;;;8.15;7.63;;;;;;;21.33;54.66;101904.09;6128965;28;20255;-57
2021/06/05 00:59:31;;;;;;;8.70;7.90;;;;;;;21.09;55.35;101895.25;6142586;28;20235;-54
2021/06/05 01:02:52;;;;;;;8.70;8.00;;;;;;;21.14;55.11;101900.38;6141879;28;20223;-53
2021/06/05 01:06:17;;;;;;;8.20;7.43;;;;;;;20.83;56.18;101906.78;6134199;28;21000;-56
2021/06/05 01:09:46;;;;;;;10.10;9.20;;;;;;;20.75;56.44;101907.03;6139185;28;20227;-55
2021/06/05 01:13:17;;;;;;;8.65;7.95;;;;;;;20.99;55.50;101921.19;6133471;28;20256;-54
2021/06/05 01:16:43;;;;;;;9.30;8.60;;;;;;;20.89;55.54;101913.63;6145855;28;20226;-52
2021/06/05 01:20:09;;;;;;;9.52;8.68;;;;;;;20.75;56.11;101907.03;6136832;28;20230;-50
2021/06/05 01:23:38;;;;;;;9.20;8.27;;;;;;;20.82;55.77;101912.97;6130978;28;20325;-53
2021/06/05 01:27:08;;;;;;;9.23;8.43;;;;;;;20.85;55.87;101913.72;6131791;28;20668;-55
2021/06/05 01:30:37;;;;;;;13.10;11.80;;;;;;;20.75;56.15;101911.47;6132896;28;20243;-54
2021/06/05 01:33:59;;;;;;;11.57;10.43;;;;;;;20.81;55.87;101912.09;6140573;28;20228;-54
2021/06/05 01:37:22;;;;;;;8.65;7.85;;;;;;;20.65;56.40;101906.47;6135438;28;20321;-54
2021/06/05 01:40:51;;;;;;;10.02;9.05;;;;;;;20.77;55.75;101910.50;6143965;28;20227;-53
2021/06/05 01:44:15;;;;;;;10.98;9.93;;;;;;;20.65;55.90;101903.84;6138963;28;20235;-57
2021/06/05 01:47:39;;;;;;;10.20;9.27;;;;;;;20.76;55.60;101914.06;6130425;28;20243;-56
2021/06/05 01:51:07;;;;;;;11.00;9.90;;;;;;;20.64;55.80;101910.03;6121077;28;20286;-55
2021/06/05 01:54:34;;;;;;;10.40;9.43;;;;;;;20.69;55.52;101914.34;6114159;28;20235;-56
2021/06/05 01:57:59;;;;;;;8.93;8.13;;;;;;;20.59;55.66;101917.28;6139862;28;20251;-54
2021/06/05 02:01:30;;;;;;;11.82;10.82;;;;;;;20.63;55.85;101916.25;6147085;28;20219;-55
2021/06/05 02:04:55;;;;;;;10.57;9.57;;;;;;;20.62;55.77;101913.66;6132955;28;20259;-56
2021/06/05 02:08:24;;;;;;;8.88;8.18;;;;;;;20.56;56.08;101914.69;6133517;28;20796;-55
2021/06/05 02:11:50;;;;;;;10.55;9.75;;;;;;;20.63;55.85;101908.31;6138731;28;20577;-55
2021/06/05 02:15:25;;;;;;;8.95;8.18;;;;;;;20.60;56.01;101918.13;6147149;28;20230;-56
2021/06/05 02:19:00;;;;;;;8.55;7.75;;;;;;;20.43;56.33;101914.25;6139422;28;20223;-58
2021/06/05 02:22:32;;;;;;;8.77;8.07;;;;;;;20.24;56.83;101908.69;6126633;28;20227;-57
2021/06/05 02:25:59;;;;;;;9.38;8.68;;;;;;;20.26;56.82;101908.66;6125062;28;20231;-57
2021/06/05 02:29:26;;;;;;;11.13;10.18;;;;;;;20.23;57.04;101908.72;6138170;28;20231;-56
2021/06/05 02:32:47;;;;;;;9.85;9.05;;;;;;;20.41;56.36;101909.91;6141066;28;20227;-54
2021/06/05 02:36:15;;;;;;;9.90;8.98;;;;;;;20.24;56.74;101911.34;6134324;28;20239;-57
2021/06/05 02:39:40;;;;;;;10.18;9.27;;;;;;;20.30;56.54;101898.81;6146024;28;20567;-55
2021/06/05 02:43:05;;;;;;;9.95;7.32;;;;;;;20.26;56.87;101900.72;6134887;28;20239;-55
2021/06/05 02:46:31;;;;;;;8.75;7.95;;;;;;;20.18;57.02;101895.69;6124319;28;20235;-57
2021/06/05 02:49:52;;;;;;;9.88;8.98;;;;;;;20.18;56.77;101897.44;6136885;28;20235;-52
2021/06/05 02:53:15;;;;;;;9.32;8.52;;;;;;;20.02;57.16;101897.06;6137650;28;20235;-56
2021/06/05 02:56:38;;;;;;;8.93;8.23;;;;;;;20.13;56.67;101902.88;6133646;28;20239;-57
2021/06/05 02:59:59;;;;;;;8.35;7.63;;;;;;;20.13;56.91;101902.03;6133459;28;20227;-54
2021/06/05 03:03:22;;;;;;;8.90;8.10;;;;;;;19.89;57.52;101891.31;6122582;28;20243;-54
2021/06/05 03:06:44;;;;;;;9.93;9.13;;;;;;;19.77;57.76;101895.16;6133107;28;20234;-57
2021/06/05 03:10:07;;;;;;;9.48;8.68;;;;;;;19.88;57.58;101892.22;6132717;28;20380;-57
2021/06/05 03:13:28;;;;;;;8.82;8.13;;;;;;;19.92;57.12;101887.69;6137663;28;20227;-56
2021/06/05 03:16:49;;;;;;;9.38;8.43;;;;;;;20.04;56.78;101889.94;6132491;28;20268;-56
2021/06/05 03:20:18;;;;;;;8.95;8.05;;;;;;;19.99;56.80;101879.53;6134566;28;20342;-57
2021/06/05 03:23:40;;;;;;;7.57;7.07;;;;;;;19.90;57.13;101889.53;6130986;28;20508;-56
2021/06/05 03:27:08;;;;;;;12.25;8.93;;;;;;;19.83;57.19;101883.53;6144416;28;20267;-55
2021/06/05 03:30:30;;;;;;;9.43;8.55;;;;;;;19.80;57.39;101878.38;6110506;28;20357;-55
2021/06/05 03:33:51;;;;;;;11.07;10.18;;;;;;;19.88;56.76;101875.50;6132961;28;20231;-55
2021/06/05 03:37:14;;;;;;;10.65;9.73;;;;;;;19.73;57.24;101877.69;6131211;28;20227;-54
2021/06/05 03:40:39;;;;;;;10.25;9.10;;;;;;;19.98;56.26;101876.91;6136432;28;20252;-54
2021/06/05 03:44:01;;;;;;;9.57;8.85;;;;;;;19.84;56.58;101880.84;6129155;28;20223;-55
2021/06/05 03:47:22;;;;;;;9.52;8.75;;;;;;;20.11;55.90;101883.56;6137198;28;20247;-55
2021/06/05 03:50:51;;;;;;;9.63;8.73;;;;;;;20.13;55.67;101881.72;6137247;28;20235;-56
2021/06/05 03:54:13;;;;;;;9.73;8.82;;;;;;;19.82;56.41;101880.03;6141409;28;20234;-57
2021/06/05 03:57:34;;;;;;;8.90;8.10;;;;;;;19.83;56.50;101892.38;6125320;28;20235;-55
2021/06/05 04:00:56;;;;;;;9.07;8.27;;;;;;;19.75;56.57;101901.41;6138226;28;20242;-57
2021/06/05 04:04:19;;;;;;;8.73;8.13;;;;;;;19.96;55.82;101899.91;6143514;28;20258;-55
2021/06/05 04:07:41;;;;;;;9.43;8.63;;;;;;;20.08;55.68;101890.72;6143429;28;20258;-57
2021/06/05 04:11:01;;;;;;;8.93;8.23;;;;;;;19.97;55.95;101891.06;6142389;28;20227;-55
2021/06/05 04:14:22;;;;;;;9.63;8.80;;;;;;;20.20;55.31;101899.13;6139482;28;20604;-56
2021/06/05 04:17:44;;;;;;;11.88;10.98;;;;;;;20.33;54.68;101898.72;6141159;28;20931;-54
2021/06/05 04:21:07;;;;;;;9.10;8.30;;;;;;;20.36;54.55;101891.56;6128231;28;20537;-55
2021/06/05 04:24:27;;;;;;;9.18;8.18;;;;;;;20.43;54.42;101884.25;6114312;28;20322;-55
2021/06/05 04:27:48;;;;;;;8.93;8.23;;;;;;;20.32;54.27;101897.00;6141679;28;20235;-56
2021/06/05 04:31:10;;;;;;;8.60;7.80;;;;;;;20.52;54.07;101899.84;6140544;28;20235;-55
2021/06/05 04:34:32;;;;;;;8.40;7.70;;;;;;;20.71;53.44;101899.25;6137005;28;20239;-56
2021/06/05 04:37:54;;;;;;;7.70;7.10;;;;;;;20.83;53.26;101904.97;6134536;28;20236;-55
2021/06/05 04:41:17;;;;;;;8.30;6.93;;;;;;;20.77;53.07;101896.41;6142773;28;20302;-56
2021/06/05 04:44:37;;;;;;;9.13;8.43;;;;;;;20.91;52.01;101901.22;6127212;28;20259;-55
2021/06/05 04:47:58;;;;;;;8.18;7.47;;;;;;;20.73;52.86;101897.44;6135434;28;20464;-53
2021/06/05 04:51:22;;;;;;;8.52;7.78;;;;;;;20.76;52.45;101892.91;6138020;28;20593;-54
2021/06/05 04:54:42;;;;;;;7.22;6.63;;;;;;;20.92;52.19;101893.22;6139134;28;20645;-57
2021/06/05 04:58:04;;;;;;;9.02;8.25;;;;;;;20.90;52.10;101889.75;6136892;28;20251;-54
2021/06/05 05:01:24;;;;;;;8.85;8.15;;;;;;;20.74;52.54;101894.69;6136945;28;20273;-55
2021/06/05 05:04:45;;;;;;;8.25;7.57;;;;;;;20.90;51.96;101894.16;6136628;28;20600;-57
2021/06/05 05:08:09;;;;;;;9.95;7.85;;;;;;;21.10;51.64;101893.47;6136807;28;20231;-56
2021/06/05 05:11:29;;;;;;;8.80;7.90;;;;;;;21.22;51.50;101885.06;6136664;28;20235;-56
2021/06/05 05:14:49;;;;;;;8.13;7.53;;;;;;;20.70;52.62;101894.88;6125099;28;20226;-55
2021/06/05 05:18:10;;;;;;;10.50;9.70;;;;;;;20.87;52.55;101892.50;6139293;28;20262;-55
2021/06/05 05:21:31;;;;;;;9.05;8.20;;;;;;;20.97;52.17;101888.59;6129002;28;20263;-56
2021/06/05 05:24:53;;;;;;;9.88;8.90;;;;;;;21.18;51.68;101894.91;6133890;28;20239;-55
2021/06/05 05:28:16;;;;;;;9.88;9.00;;;;;;;21.33;51.59;101892.63;6133705;28;20258;-53
2021/06/05 05:31:37;;;;;;;8.57;7.93;;;;;;;21.38;51.21;101888.00;6146368;28;20318;-54
2021/06/05 05:34:57;;;;;;;9.93;8.75;;;;;;;21.28;51.68;101887.50;6131629;28;20242;-57
2021/06/05 05:38:19;;;;;;;8.43;7.82;;;;;;;21.39;51.50;101887.97;6136015;28;20235;-56
2021/06/05 05:41:41;;;;;;;8.30;7.60;;;;;;;21.33;51.43;101890.00;6135344;28;20242;-56
2021/06/05 05:45:02;;;;;;;10.80;9.88;;;;;;;21.63;50.71;101887.97;6135029;28;20323;-58
2021/06/05 05:48:23;;;;;;;9.02;8.30;;;;;;;;;;6133240;28;20572;-56
2021/06/05 05:51:44;;;;;;;8.35;7.65;;;;;;;21.65;50.94;101893.22;6136790;28;20243;-57
2021/06/05 05:55:06;;;;;;;8.45;7.72;;;;;;;21.73;51.00;101886.72;6140896;28;20239;-52
2021/06/05 05:58:28;;;;;;;8.30;7.57;;;;;;;21.92;50.67;101893.94;6133571;28;20231;-52
2021/06/05 06:01:49;;;;;;;8.63;7.85;;;;;;;21.99;50.34;101895.44;6134896;28;20235;-56
2021/06/05 06:05:10;;;;;;;7.35;6.70;;;;;;;21.97;50.32;101899.94;6133591;28;20231;-55
2021/06/05 06:08:31;;;;;;;8.68;7.93;;;;;;;22.21;49.99;101896.25;6134374;28;20227;-54
2021/06/05 06:11:51;;;;;;;8.20;7.57;;;;;;;22.13;49.98;101898.38;6137238;28;20230;-57
2021/06/05 06:15:17;;;;;;;9.32;8.43;;;;;;;22.08;49.84;101905.69;6133082;28;20338;-55
2021/06/05 06:18:39;;;;;;;7.55;6.93;;;;;;;22.23;49.83;101904.16;6126968;28;20235;-56
2021/06/05 06:21:59;;;;;;;6.95;6.47;;;;;;;22.41;49.27;101894.59;6128015;28;20234;-54
2021/06/05 06:25:22;;;;;;;7.57;6.95;;;;;;;22.55;48.76;101886.94;6136925;28;20235;-55
2021/06/05 06:28:43;;;;;;;8.18;7.47;;;;;;;22.69;48.43;101888.16;6131335;28;20226;-54
2021/06/05 06:32:05;;;;;;;7.22;6.63;;;;;;;22.66;48.54;101896.22;6137952;28;20812;-57
2021/06/05 06:35:28;;;;;;;7.78;7.07;;;;;;;22.84;47.91;101890.16;6131518;28;20341;-55
2021/06/05 06:38:50;;;;;;;7.15;6.53;;;;;;;23.09;47.47;101878.44;6130937;28;20310;-53
2021/06/05 06:42:10;;;;;;;7.50;6.90;;;;;;;23.00;48.06;101877.91;6134331;28;20259;-57
2021/06/05 06:45:32;;;;;;;10.68;7.53;;;;;;;23.33;46.92;101877.34;6128562;28;20235;-54
2021/06/05 06:48:57;;;;;;;7.72;6.18;;;;;;;23.37;47.41;101881.56;6131861;28;20227;-58
2021/06/05 06:52:17;;;;;;;7.88;7.28;;;;;;;23.48;46.87;101882.91;6136120;28;20231;-56
2021/06/05 06:55:37;;;;;;;6.78;6.13;;;;;;;23.41;46.81;101881.44;6134286;28;20247;-56
2021/06/05 06:58:58;;;;;;;8.15;7.13;;;;;;;23.76;46.37;101883.28;6131611;28;20247;-56
2021/06/05 07:02:18;;;;;;;6.88;6.35;;;;;;;23.74;46.59;101879.84;6134666;28;20254;-55
2021/06/05 07:05:40;;;;;;;6.82;6.22;;;;;;;23.64;46.17;101869.75;6134265;28;20270;-56
2021/06/05 07:09:01;;;;;;;6.22;5.72;;;;;;;23.58;46.15;101878.88;6137656;28;20234;-56
2021/06/05 07:12:21;;;;;;;5.90;5.40;;;;;;;23.69;45.83;101876.56;6136419;28;20235;-57
2021/06/05 07:15:42;;;;;;;5.50;5.10;;;;;;;23.75;45.68;101872.75;6132122;28;20314;-56
2021/06/05 07:19:04;;;;;;;6.75;6.03;;;;;;;23.46;45.41;101874.09;6131437;28;20231;-55
2021/06/05 07:22:26;;;;;;;5.65;5.18;;;;;;;23.86;45.09;101869.59;6132187;28;20235;-56
2021/06/05 07:25:47;;;;;;;6.53;5.93;;;;;;;24.35;44.16;101870.69;6127220;28;20258;-57
2021/06/05 07:29:11;;;;;;;5.28;4.78;;;;;;;24.49;43.72;101869.16;6135031;28;20231;-56
2021/06/05 07:32:32;;;;;;;5.97;5.47;;;;;;;24.58;43.23;101865.16;6127354;28;20243;-54
2021/06/05 07:35:54;;;;;;;6.50;5.60;;;;;;;24.80;42.32;101870.25;6132742;28;20321;-57
2021/06/05 07:39:18;;;;;;;5.07;4.68;;;;;;;24.85;42.72;101871.72;6136172;28;20231;-57
2021/06/05 07:42:39;;;;;;;5.63;5.22;;;;;;;25.05;41.81;101865.34;6122939;28;20243;-54
2021/06/05 07:46:00;;;;;;;4.63;4.22;;;;;;;25.06;41.89;101868.84;6137518;28;20243;-57
2021/06/05 07:49:23;;;;;;;5.90;5.30;;;;;;;25.37;41.62;101869.91;6128799;28;20243;-55
2021/06/05 07:52:43;;;;;;;7.05;5.50;;;;;;;25.15;40.67;101871.03;6127913;28;20326;-56
2021/06/05 07:56:05;;;;;;;6.15;5.63;;;;;;;24.92;40.42;101875.78;6136121;28;20315;-56
2021/06/05 07:59:28;;;;;;;5.63;5.10;;;;;;;24.78;40.74;101867.66;6131006;28;20235;-56
2021/06/05 08:02:49;;;;;;;6.50;4.30;;;;;;;25.03;40.35;101866.34;6129727;28;20277;-56
2021/06/05 08:06:11;;;;;;;4.78;4.47;;;;;;;25.04;40.49;101870.75;6135077;28;20239;-52
2021/06/05 08:09:31;;;;;;;6.93;5.38;;;;;;;25.78;39.86;101864.91;6121094;28;20251;-55
2021/06/05 08:12:54;;;;;;;5.00;4.45;;;;;;;25.70;39.29;101860.00;6132745;28;20321;-57
2021/06/05 08:16:14;;;;;;;4.60;4.15;;;;;;;26.01;40.37;101865.44;6135267;28;20231;-55
2021/06/05 08:19:37;;;;;;;9.05;4.40;;;;;;;26.43;38.87;101862.06;6127596;28;20620;-58
2021/06/05 08:22:57;;;;;;;8.30;4.63;;;;;;;26.38;39.10;101864.13;6124298;28;20361;-56
2021/06/05 08:26:18;;;;;;;4.65;3.80;;;;;;;26.92;38.68;101864.44;6132730;28;20251;-55
2021/06/05 08:29:40;;;;;;;5.32;4.88;;;;;;;26.81;38.13;101858.03;6126025;28;20235;-55
2021/06/05 08:33:01;;;;;;;4.60;4.18;;;;;;;27.00;37.34;101855.09;6135064;28;20247;-55
2021/06/05 08:36:24;;;;;;;4.95;4.45;;;;;;;27.18;37.47;101855.75;6135706;28;20235;-57
2021/06/05 08:39:44;;;;;;;5.40;4.90;;;;;;;27.28;36.25;101849.78;6140679;28;20238;-56
2021/06/05 08:43:05;;;;;;;4.25;3.95;;;;;;;27.50;36.52;101851.06;6132590;28;20617;-57
2021/06/05 08:46:30;;;;;;;4.20;3.90;;;;;;;27.54;35.73;101847.25;6127371;28;20240;-50
2021/06/05 08:49:50;;;;;;;4.50;4.07;;;;;;;27.33;35.74;101849.47;6136469;28;20620;-58
2021/06/05 08:53:15;;;;;;;4.57;4.20;;;;;;;27.68;34.50;101852.56;6142348;28;20593;-57
2021/06/05 08:56:40;;;;;;;5.10;4.25;;;;;;;27.37;35.48;101858.16;6126042;28;20239;-60
2021/06/05 09:00:08;;;;;;;4.30;3.80;;;;;;;27.09;34.86;101846.53;6135998;28;20334;-57
2021/06/05 09:03:31;;;;;;;4.70;4.30;;;;;;;26.89;35.80;101850.44;6134235;28;20234;-60
2021/06/05 09:06:56;;;;;;;5.60;4.35;;;;;;;26.74;34.96;101849.56;6134504;28;20255;-56
2021/06/05 09:10:19;;;;;;;4.10;3.80;;;;;;;27.00;34.74;101845.25;6138075;28;20231;-60
2021/06/05 09:13:40;;;;;;;3.72;3.50;;;;;;;27.03;34.23;101855.78;6138901;28;20465;-58
2021/06/05 09:17:13;;;;;;;4.47;4.18;;;;;;;26.62;34.96;101858.31;6129831;28;20502;-54
2021/06/05 09:20:38;;;;;;;4.63;4.22;;;;;;;27.33;34.32;101851.28;6134679;28;20227;-55
2021/06/05 09:24:16;;;;;;;5.50;4.40;;;;;;;26.84;33.54;101858.72;6139412;28;20231;-53
2021/06/05 09:27:39;;;;;;;4.53;4.13;;;;;;;26.65;34.62;101850.13;6134524;28;20726;-56
2021/06/05 09:31:13;;;;;;;4.32;4.03;;;;;;;26.67;34.64;101842.88;6137636;28;20309;-54
2021/06/05 09:34:38;;;;;;;4.05;3.75;;;;;;;27.49;34.29;101841.31;6137231;28;20231;-58
2021/06/05 09:38:18;;;;;;;3.83;3.63;;;;;;;27.54;33.59;101836.53;6137985;28;20242;-58
2021/06/05 09:41:42;;;;;;;4.03;3.55;;;;;;;27.73;33.56;101838.03;6136774;28;20258;-57
2021/06/05 09:45:04;;;;;;;4.05;3.70;;;;;;;27.19;33.73;101850.31;6134809;28;20231;-55
2021/06/05 09:48:31;;;;;;;4.15;3.75;;;;;;;27.97;34.11;101846.28;6138093;28;21120;-58
2021/06/05 09:52:05;;;;;;;4.90;3.90;;;;;;;27.44;33.39;101838.09;6136521;28;20255;-56
2021/06/05 09:55:35;;;;;;;4.38;4.07;;;;;;;27.67;33.33;101840.13;6135230;28;20223;-56
2021/06/05 09:59:06;;;;;;;3.78;3.47;;;;;;;28.38;36.51;101835.47;6134967;28;20234;-57
2021/06/05 10:02:27;;;;;;;4.22;3.90;;;;;;;28.56;32.91;101844.06;6137111;28;20322;-59
2021/06/05 10:05:49;;;;;;;5.30;4.90;;;;;;;28.14;31.91;101839.78;6137988;28;20235;-57
2021/06/05 10:09:32;;;;;;;4.10;3.75;;;;;;;28.52;32.86;101850.63;6136374;28;20597;-56
2021/06/05 10:12:55;;;;;;;4.47;4.18;;;;;;;28.79;32.85;101844.28;6134546;28;20235;-57
2021/06/05 10:16:19;;;;;;;4.18;3.88;;;;;;;28.75;32.41;101830.25;6135052;28;20227;-58
2021/06/05 10:19:44;;;;;;;6.13;3.97;;;;;;;28.90;31.96;101830.13;6147351;28;21750;-56
2021/06/05 10:23:05;;;;;;;3.72;3.50;;;;;;;29.10;31.52;101828.69;6137558;28;20243;-56
2021/06/05 10:26:32;;;;;;;4.72;4.40;;;;;;;28.93;31.29;101832.59;6137305;28;20282;-60
2021/06/05 10:29:59;;;;;;;5.85;5.20;;;;;;;29.00;31.18;101831.19;6131891;28;20231;-58
2021/06/05 10:33:34;;;;;;;6.43;4.70;;;;;;;29.11;30.77;101827.75;6131266;28;20236;-58
2021/06/05 10:36:56;;;;;;;5.95;4.60;;;;;;;29.31;31.11;101823.66;6127215;28;20238;-56
2021/06/05 10:40:20;;;;;;;4.93;4.50;;;;;;;29.10;30.17;101824.22;6131824;28;20637;-56
2021/06/05 10:43:41;;;;;;;7.10;4.60;;;;;;;29.14;29.77;101823.06;6138523;28;20228;-53
2021/06/05 10:47:09;;;;;;;5.80;4.38;;;;;;;30.20;30.35;101819.72;6136102;28;20562;-59
2021/06/05 10:50:32;;;;;;;9.35;3.85;;;;;;;29.73;28.81;101818.81;6135143;28;20503;-57
2021/06/05 10:54:01;;;;;;;10.65;5.22;;;;;;;30.38;29.26;101812.09;6137272;28;20532;-57
2021/06/05 10:57:29;;;;;;;4.45;4.05;;;;;;;29.97;30.03;101811.59;6134115;28;20685;-51
2021/06/05 11:00:52;;;;;;;3.83;3.53;;;;;;;29.10;31.22;101808.13;6135373;28;20238;-56
2021/06/05 11:04:51;;;;;;;4.60;4.30;;;;;;;29.28;31.94;101802.44;6138688;28;20235;-54
2021/06/05 11:08:49;;;;;;;3.70;3.50;;;;;;;29.10;32.06;101800.09;6130515;28;20238;-56
2021/06/05 11:12:44;;;;;;;3.90;3.60;;;;;;;29.16;31.09;101799.66;6130280;28;20235;-57
2021/06/05 11:16:06;;;;;;;3.92;3.72;;;;;;;29.43;30.81;101799.47;6134769;28;20605;-57
2021/06/05 11:19:34;;;;;;;4.72;4.18;;;;;;;30.02;30.88;101790.59;6122465;28;20238;-56
2021/06/05 11:23:09;;;;;;;4.10;3.80;;;;;;;29.71;30.92;101789.34;6131403;28;20234;-57
2021/06/05 11:26:42;;;;;;;5.90;4.45;;;;;;;30.19;29.83;101783.94;6135720;28;20231;-57
2021/06/05 11:30:05;;;;;;;4.32;4.03;;;;;;;30.92;29.33;101776.50;6130842;28;20231;-56
2021/06/05 11:33:43;;;;;;;4.50;4.03;;;;;;;31.00;28.33;101774.03;6133150;28;20227;-55
2021/06/05 11:37:05;;;;;;;4.60;4.30;;;;;;;31.12;28.83;101782.94;6126523;28;20234;-56
2021/06/05 11:40:58;;;;;;;4.28;3.97;;;;;;;30.75;28.37;101763.53;6126914;28;20243;-56
2021/06/05 11:44:30;;;;;;;4.60;4.20;;;;;;;30.93;29.07;101767.44;6134946;28;20227;-57
2021/06/05 11:47:51;;;;;;;4.40;4.00;;;;;;;31.39;29.02;101763.69;6128200;28;20231;-57
2021/06/05 11:51:31;;;;;;;4.05;3.35;;;;;;;31.49;28.95;101763.81;6134944;28;20258;-57
2021/06/05 11:54:51;;;;;;;4.35;4.05;;;;;;;32.20;28.13;101757.81;6126843;28;20227;-57
2021/06/05 11:58:25;;;;;;;3.88;3.60;;;;;;;31.70;28.15;101760.28;6129968;28;20676;-57
2021/06/05 12:01:47;;;;;;;4.25;3.92;;;;;;;30.72;29.67;101756.53;6131959;28;20318;-54
2021/06/05 12:05:16;;;;;;;6.00;5.38;;;;;;;31.48;29.21;101763.94;6137213;28;20235;-57
2021/06/05 12:08:36;;;;;;;5.72;4.65;;;;;;;30.99;30.17;101766.94;6135032;28;20227;-57
2021/06/05 12:11:59;;;;;;;5.25;4.68;;;;;;;31.93;28.51;101763.72;6139610;28;20321;-58
2021/06/05 12:15:24;;;;;;;3.97;3.67;;;;;;;30.87;28.77;101746.41;6135355;28;20223;-57
2021/06/05 12:18:47;;;;;;;4.65;3.60;;;;;;;30.60;30.22;101749.47;6134886;28;20325;-56
2021/06/05 12:22:12;;;;;;;6.32;5.00;;;;;;;30.03;30.76;101749.38;6134551;28;20235;-57
2021/06/05 12:25:35;;;;;;;4.88;4.07;;;;;;;31.20;29.69;101737.44;6129206;28;20242;-55
2021/06/05 12:29:10;;;;;;;4.70;4.30;;;;;;;31.02;29.27;101730.88;6139526;28;20238;-57
2021/06/05 12:32:30;;;;;;;4.45;3.92;;;;;;;30.84;29.09;101740.41;6130975;28;20219;-56
2021/06/05 12:35:52;;;;;;;4.50;4.15;;;;;;;30.78;29.49;101723.78;6130626;28;20231;-56
2021/06/05 12:39:17;;;;;;;4.35;3.97;;;;;;;30.89;29.60;101727.47;6142154;28;20508;-56
2021/06/05 12:42:38;;;;;;;4.75;4.38;;;;;;;30.96;29.65;101726.00;6131565;28;20223;-54
2021/06/05 12:45:59;;;;;;;4.57;3.78;;;;;;;30.95;29.61;101716.22;6133648;28;20492;-57
2021/06/05 12:49:25;;;;;;;4.38;3.85;;;;;;;31.17;28.99;101721.56;6138600;28;20234;-55
2021/06/05 12:52:50;;;;;;;4.22;3.92;;;;;;;30.92;28.80;101706.59;6137942;28;20235;-53
2021/06/05 12:56:33;;;;;;;4.10;3.40;;;;;;;31.53;28.16;101711.41;6118532;28;20539;-56
2021/06/05 12:59:54;;;;;;;4.25;3.90;;;;;;;31.51;28.21;101708.00;6138847;28;20239;-53
2021/06/05 13:03:40;;;;;;;4.65;4.25;;;;;;;31.87;27.33;101713.06;6129524;28;20649;-57
2021/06/05 13:07:03;;;;;;;3.65;3.45;;;;;;;31.57;27.76;101707.47;6130748;28;20326;-55
2021/06/05 13:10:37;;;;;;;7.10;4.15;;;;;;;30.44;29.52;101709.53;6137694;28;20254;-55
2021/06/05 13:14:22;;;;;;;5.72;4.20;;;;;;;30.33;30.13;101710.38;6134927;28;20633;-57
2021/06/05 13:17:52;;;;;;;4.28;3.92;;;;;;;30.36;30.42;101707.44;6128191;28;20334;-57
2021/06/05 13:21:19;;;;;;;4.53;4.10;;;;;;;30.81;29.94;101704.72;6134502;28;20716;-56
2021/06/05 13:25:01;;;;;;;5.93;4.80;;;;;;;31.38;29.19;101712.66;6131573;28;20815;-56
2021/06/05 13:28:28;;;;;;;26.80;24.63;;;;;;;31.68;28.77;101708.41;6136803;28;20621;-57
2021/06/05 13:31:51;;;;;;;28.60;25.70;;;;;;;32.56;26.92;101709.81;6130378;28;20619;-57
2021/06/05 13:35:22;;;;;;;16.30;14.70;;;;;;;31.52;28.91;101701.66;6136468;28;20269;-57
2021/06/05 13:38:52;;;;;;;49.35;42.70;;;;;;;31.06;29.09;101702.75;6124823;28;20317;-56
2021/06/05 13:42:14;;;;;;;32.47;22.42;;;;;;;31.62;28.78;101698.16;6131447;28;20235;-54
2021/06/05 13:45:36;;;;;;;14.07;12.32;;;;;;;31.98;27.89;101694.16;6110872;28;20597;-56
2021/06/05 13:48:56;;;;;;;9.07;7.20;;;;;;;32.05;28.56;101689.09;6143703;28;20239;-58
2021/06/05 13:52:27;;;;;;;7.93;6.72;;;;;;;30.78;30.40;101682.59;6135990;28;20310;-56
2021/06/05 13:55:52;;;;;;;12.82;10.13;;;;;;;30.69;30.63;101684.22;6130612;28;20231;-56
2021/06/05 13:59:13;;;;;;;7.60;6.70;;;;;;;30.74;31.46;101683.84;6131150;28;20243;-57
2021/06/05 14:02:34;;;;;;;6.75;5.95;;;;;;;30.36;30.14;101695.81;6120040;28;20479;-57
2021/06/05 14:05:55;;;;;;;5.40;4.95;;;;;;;30.10;31.09;101692.50;6120956;28;20649;-55
2021/06/05 14:09:16;;;;;;;4.97;4.57;;;;;;;30.36;30.58;101699.38;6137805;28;20321;-56
2021/06/05 14:12:39;;;;;;;5.38;4.72;;;;;;;30.00;31.02;101697.72;6131515;28;20656;-56
2021/06/05 14:16:01;;;;;;;5.25;4.55;;;;;;;29.89;31.20;101708.44;6129663;28;20227;-56
2021/06/05 14:19:23;;;;;;;4.30;3.83;;;;;;;29.71;30.98;101708.00;6135376;28;20522;-55
2021/06/05 14:22:43;;;;;;;3.92;3.50;;;;;;;29.82;32.44;101710.75;6134778;28;20227;-56
2021/06/05 14:26:06;;;;;;;51.13;7.40;;;;;;;29.57;31.87;101712.56;6130312;28;20235;-57
2021/06/05 14:29:27;;;;;;;4.65;3.85;;;;;;;29.24;31.59;101707.91;6128346;28;20231;-56
2021/06/05 14:32:47;;;;;;;3.45;3.22;;;;;;;28.88;31.61;101704.25;6123336;28;20251;-59
2021/06/05 14:36:10;;;;;;;8.18;5.65;;;;;;;29.29;31.73;101712.94;6124357;28;20243;-55
2021/06/05 14:39:30;;;;;;;5.07;4.70;;;;;;;29.40;31.83;101711.16;6131312;28;20235;-58
2021/06/05 14:42:51;;;;;;;6.63;5.47;;;;;;;29.32;32.21;101699.31;6130105;28;20231;-55
2021/06/05 14:46:14;;;;;;;5.43;4.93;;;;;;;29.17;31.84;101696.78;6135755;28;20259;-57
2021/06/05 14:49:34;;;;;;;4.53;3.97;;;;;;;29.15;32.44;101704.06;6137664;28;20235;-58
2021/06/05 14:52:57;;;;;;;5.10;4.45;;;;;;;29.29;31.36;101704.88;6134739;28;20231;-56
2021/06/05 14:56:18;;;;;;;5.43;4.00;;;;;;;28.86;32.08;101701.66;6127865;28;20723;-59
2021/06/05 14:59:38;;;;;;;4.10;3.80;;;;;;;29.16;32.48;101697.75;6131976;28;20235;-58
2021/06/05 15:02:59;;;;;;;5.72;3.20;;;;;;;29.36;31.60;101692.72;6136688;28;20594;-60
2021/06/05 15:06:21;;;;;;;3.55;3.10;;;;;;;29.34;31.75;101694.69;6135500;28;20505;-59
2021/06/05 15:09:43;;;;;;;3.67;3.38;;;;;;;29.25;32.05;101697.09;6133486;28;20362;-55
2021/06/05 15:13:04;;;;;;;4.78;4.13;;;;;;;29.24;31.96;101690.00;6134963;28;20235;-56
2021/06/05 15:16:25;;;;;;;8.68;4.70;;;;;;;29.09;32.86;101690.25;6125719;28;20235;-55
2021/06/05 15:19:45;;;;;;;3.88;3.55;;;;;;;29.16;32.47;101696.88;6131894;28;20263;-59
2021/06/05 15:23:09;;;;;;;4.25;3.85;;;;;;;29.16;32.77;101697.75;6131476;28;20227;-58
2021/06/05 15:26:31;;;;;;;4.10;3.70;;;;;;;28.71;34.02;101700.09;6126627;28;20660;-57
2021/06/05 15:29:52;;;;;;;3.90;3.60;;;;;;;28.69;33.35;101704.72;6120091;28;20621;-57
2021/06/05 15:33:14;;;;;;;6.05;5.15;;;;;;;28.42;35.91;101707.50;6125442;28;20321;-58
2021/06/05 15:36:35;;;;;;;4.47;4.18;;;;;;;28.27;36.62;101706.78;6130288;28;20664;-58
2021/06/05 15:39:55;;;;;;;7.47;5.25;;;;;;;28.18;37.99;101710.09;6142191;28;20235;-57
2021/06/05 15:43:19;;;;;;;6.03;5.25;;;;;;;28.15;38.54;101724.56;6134193;28;20234;-57
2021/06/05 15:46:40;;;;;;;6.43;5.88;;;;;;;28.23;38.38;101721.34;6134353;28;20407;-55
2021/06/05 15:50:01;;;;;;;6.68;6.07;;;;;;;28.39;38.63;101730.03;6129198;28;20246;-57